createdAt,value
2019-06-08T00:00:07.571Z,16.08
2019-06-08T00:02:38.527Z,16.05
2019-06-08T00:05:10.486Z,15.98
2019-06-08T00:07:44.735Z,15.94
2019-06-08T00:10:15.248Z,15.84
2019-06-08T00:12:46.759Z,15.72
2019-06-08T00:15:18.617Z,15.78
2019-06-08T00:17:49.885Z,15.84
2019-06-08T00:20:21.857Z,15.91
2019-06-08T00:22:54.863Z,15.95
2019-06-08T00:25:25.233Z,15.99
2019-06-08T00:27:56.929Z,15.99
2019-06-08T00:30:28.807Z,16.00
2019-06-08T00:32:59.658Z,16.00
2019-06-08T00:35:30.248Z,16.03
2019-06-08T00:38:00.534Z,16.05
2019-06-08T00:40:30.889Z,16.05
2019-06-08T00:43:12.737Z,16.03
2019-06-08T00:45:43.207Z,16.05
2019-06-08T00:48:13.498Z,16.07
2019-06-08T00:50:44.165Z,16.14
2019-06-08T00:53:14.741Z,16.16
2019-06-08T00:55:45.191Z,16.16
2019-06-08T00:58:15.467Z,16.15
2019-06-08T01:00:48.935Z,16.14
2019-06-08T01:03:19.583Z,16.19
2019-06-08T01:05:52.326Z,16.18
2019-06-08T01:08:25.782Z,16.17
2019-06-08T01:10:56.022Z,16.14
2019-06-08T01:13:26.958Z,16.17
2019-06-08T01:15:58.788Z,16.14
2019-06-08T01:18:29.362Z,16.11
2019-06-08T01:21:00.192Z,16.10
2019-06-08T01:23:30.722Z,16.12
2019-06-08T01:26:01.284Z,16.15
2019-06-08T01:28:32.745Z,16.16
2019-06-08T01:31:03.637Z,16.12
2019-06-08T01:33:36.025Z,16.05
2019-06-08T01:36:07.382Z,16.05
2019-06-08T01:38:38.105Z,16.04
2019-06-08T01:41:08.581Z,16.03
2019-06-08T01:43:38.909Z,16.03
2019-06-08T01:46:09.599Z,16.00
2019-06-08T01:48:41.187Z,15.96
2019-06-08T01:51:11.792Z,15.95
2019-06-08T01:53:43.729Z,15.94
2019-06-08T01:56:14.167Z,15.89
2019-06-08T01:58:44.842Z,15.83
2019-06-08T02:01:15.426Z,15.83
2019-06-08T02:03:46.129Z,15.80
2019-06-08T02:06:18.023Z,15.77
2019-06-08T02:08:48.684Z,15.76
2019-06-08T02:11:19.271Z,15.74
2019-06-08T02:13:49.838Z,15.73
2019-06-08T02:16:20.428Z,15.70
2019-06-08T02:18:51.428Z,15.69
2019-06-08T02:21:21.655Z,15.68
2019-06-08T02:23:52.293Z,15.66
2019-06-08T02:26:26.986Z,15.62
2019-06-08T02:28:56.180Z,15.62
2019-06-08T02:31:27.981Z,15.60
2019-06-08T02:33:58.979Z,15.57
2019-06-08T02:36:32.816Z,15.54
2019-06-08T02:39:02.130Z,15.52
2019-06-08T02:41:35.308Z,15.52
2019-06-08T02:44:06.409Z,15.52
2019-06-08T02:46:38.272Z,15.49
2019-06-08T02:49:09.581Z,15.48
2019-06-08T02:51:41.118Z,15.46
2019-06-08T02:54:13.551Z,15.47
2019-06-08T02:56:44.959Z,15.49
2019-06-08T02:59:15.861Z,15.49
2019-06-08T03:01:48.431Z,15.46
2019-06-08T03:04:22.833Z,15.47
2019-06-08T03:06:53.727Z,15.47
2019-06-08T03:09:27.332Z,15.44
2019-06-08T03:12:02.890Z,15.42
2019-06-08T03:14:35.358Z,15.40
2019-06-08T03:17:06.524Z,15.38
2019-06-08T03:19:37.531Z,15.36
2019-06-08T03:22:10.792Z,15.36
2019-06-08T03:24:41.461Z,15.36
2019-06-08T03:27:13.605Z,15.35
2019-06-08T03:29:46.353Z,15.34
2019-06-08T03:32:16.810Z,15.36
2019-06-08T03:34:55.677Z,15.35
2019-06-08T03:37:21.484Z,15.35
2019-06-08T03:39:52.153Z,15.36
2019-06-08T03:42:22.730Z,15.38
2019-06-08T03:44:53.288Z,15.39
2019-06-08T03:47:23.893Z,15.39
2019-06-08T03:49:57.517Z,15.35
2019-06-08T03:52:26.961Z,15.34
2019-06-08T03:54:57.412Z,15.30
2019-06-08T03:57:29.061Z,15.29
2019-06-08T04:00:00.185Z,15.25
2019-06-08T04:02:31.078Z,15.22
2019-06-08T04:05:01.937Z,15.21
2019-06-08T04:07:33.146Z,15.17
2019-06-08T04:10:03.942Z,15.15
2019-06-08T04:12:34.715Z,15.16
2019-06-08T04:15:05.784Z,15.12
2019-06-08T04:17:37.892Z,15.11
2019-06-08T04:20:11.481Z,15.13
2019-06-08T04:22:46.989Z,15.14
2019-06-08T04:25:17.492Z,15.11
2019-06-08T04:27:48.199Z,15.12
2019-06-08T04:30:18.894Z,15.10
2019-06-08T04:32:49.759Z,15.09
2019-06-08T04:35:20.397Z,15.05
2019-06-08T04:37:52.053Z,15.04
2019-06-08T04:40:22.613Z,15.04
2019-06-08T04:42:53.126Z,15.04
2019-06-08T04:45:23.376Z,15.04
2019-06-08T04:47:54.052Z,15.02
2019-06-08T04:50:24.472Z,15.03
2019-06-08T04:52:55.040Z,15.04
2019-06-08T04:55:25.349Z,15.04
2019-06-08T04:57:55.972Z,15.05
2019-06-08T05:00:30.413Z,15.06
2019-06-08T05:02:58.831Z,15.05
2019-06-08T05:05:29.139Z,15.05
2019-06-08T05:08:02.563Z,15.03
2019-06-08T05:10:34.312Z,15.02
2019-06-08T05:13:06.019Z,14.98
2019-06-08T05:15:36.918Z,14.99
2019-06-08T05:18:08.297Z,15.04
2019-06-08T05:20:41.422Z,15.13
2019-06-08T05:23:11.180Z,15.19
2019-06-08T05:25:43.099Z,15.21
2019-06-08T05:28:13.815Z,15.24
2019-06-08T05:30:45.271Z,15.25
2019-06-08T05:33:17.214Z,15.25
2019-06-08T05:35:47.769Z,15.23
2019-06-08T05:38:18.389Z,15.23
2019-06-08T05:40:49.896Z,15.17
2019-06-08T05:43:20.277Z,15.17
2019-06-08T05:45:51.711Z,15.12
2019-06-08T05:48:22.289Z,15.06
2019-06-08T05:51:03.358Z,15.00
2019-06-08T05:53:25.209Z,14.95
2019-06-08T05:55:55.559Z,14.93
2019-06-08T05:58:26.136Z,14.95
2019-06-08T06:00:56.718Z,15.02
2019-06-08T06:03:27.340Z,14.99
2019-06-08T06:05:57.619Z,14.97
2019-06-08T06:08:28.054Z,14.98
2019-06-08T06:10:58.650Z,15.09
2019-06-08T06:13:29.234Z,15.02
2019-06-08T06:15:59.684Z,15.04
2019-06-08T06:18:30.391Z,15.01
2019-06-08T06:21:10.841Z,15.05
2019-06-08T06:23:33.729Z,15.04
2019-06-08T06:26:06.584Z,14.96
2019-06-08T06:28:37.093Z,14.97
2019-06-08T06:31:09.656Z,14.95
2019-06-08T06:33:39.962Z,14.94
2019-06-08T06:36:10.580Z,15.05
2019-06-08T06:38:41.919Z,15.07
2019-06-08T06:41:12.929Z,15.14
2019-06-08T06:43:43.942Z,15.15
2019-06-08T06:46:14.319Z,15.24
2019-06-08T06:48:44.612Z,15.33
2019-06-08T06:51:25.669Z,15.56
2019-06-08T06:53:48.757Z,15.63
2019-06-08T06:56:19.431Z,15.61
2019-06-08T06:58:51.588Z,15.49
2019-06-08T07:01:22.158Z,15.29
2019-06-08T07:03:55.130Z,15.15
2019-06-08T07:06:25.516Z,15.16
2019-06-08T07:08:57.444Z,15.14
2019-06-08T07:11:28.022Z,15.13
2019-06-08T07:13:59.338Z,15.21
2019-06-08T07:16:30.003Z,15.31
2019-06-08T07:19:00.325Z,15.45
2019-06-08T07:21:41.196Z,15.59
2019-06-08T07:24:03.471Z,15.45
2019-06-08T07:26:34.035Z,15.33
2019-06-08T07:29:05.124Z,15.34
2019-06-08T07:31:35.504Z,15.47
2019-06-08T07:34:06.165Z,15.42
2019-06-08T07:36:37.088Z,15.44
2019-06-08T07:39:08.322Z,15.46
2019-06-08T07:41:39.228Z,15.51
2019-06-08T07:44:09.823Z,15.73
2019-06-08T07:46:40.534Z,15.86
2019-06-08T07:49:12.153Z,16.12
2019-06-08T07:51:57.631Z,16.37
2019-06-08T07:54:16.754Z,17.37
2019-06-08T07:56:48.337Z,17.54
2019-06-08T08:01:58.386Z,16.98
2019-06-08T08:04:28.855Z,16.79
2019-06-08T08:06:59.514Z,16.66
2019-06-08T08:09:30.258Z,16.51
2019-06-08T08:12:00.875Z,16.53
2019-06-08T08:14:31.221Z,16.43
2019-06-08T08:17:02.049Z,16.53
2019-06-08T08:19:32.653Z,16.82
2019-06-08T08:22:21.449Z,16.90
2019-06-08T08:24:38.665Z,16.75
2019-06-08T08:27:08.811Z,16.68
2019-06-08T08:29:39.445Z,16.74
2019-06-08T08:32:10.266Z,16.88
2019-06-08T08:34:40.530Z,17.23
2019-06-08T08:37:11.191Z,17.48
2019-06-08T08:39:41.926Z,17.82
2019-06-08T08:42:12.584Z,18.41
2019-06-08T08:44:43.174Z,18.34
2019-06-08T08:47:13.981Z,18.03
2019-06-08T08:49:44.843Z,17.70
2019-06-08T08:52:17.506Z,17.65
2019-06-08T08:54:47.855Z,17.34
2019-06-08T08:57:18.550Z,17.18
2019-06-08T08:59:51.987Z,17.34
2019-06-08T09:02:21.543Z,17.56
2019-06-08T09:04:53.321Z,17.77
2019-06-08T09:07:24.222Z,17.92
2019-06-08T09:09:56.142Z,18.21
2019-06-08T09:12:27.659Z,18.19
2019-06-08T09:15:01.819Z,18.09
2019-06-08T09:17:30.639Z,17.83
2019-06-08T09:20:03.663Z,17.65
2019-06-08T09:22:47.180Z,17.65
2019-06-08T09:25:08.741Z,17.50
2019-06-08T09:27:40.369Z,17.51
2019-06-08T09:30:11.126Z,17.48
2019-06-08T09:32:41.831Z,17.64
2019-06-08T09:35:12.857Z,17.64
2019-06-08T09:37:43.188Z,17.65
2019-06-08T09:40:13.659Z,18.03
2019-06-08T09:42:44.500Z,18.16
2019-06-08T09:45:18.028Z,18.06
2019-06-08T09:47:48.034Z,17.49
2019-06-08T09:50:18.877Z,17.49
2019-06-08T09:53:04.542Z,17.68
2019-06-08T09:55:21.795Z,17.67
2019-06-08T09:57:54.542Z,17.86
2019-06-08T10:00:28.369Z,17.70
2019-06-08T10:03:02.201Z,17.57
2019-06-08T10:05:31.409Z,17.49
2019-06-08T10:08:03.839Z,17.61
2019-06-08T10:10:34.333Z,17.65
2019-06-08T10:13:07.160Z,17.68
2019-06-08T10:15:38.748Z,17.66
2019-06-08T10:18:10.956Z,17.83
2019-06-08T10:20:41.409Z,17.99
2019-06-08T10:23:29.832Z,18.04
2019-06-08T10:25:44.098Z,18.13
2019-06-08T10:28:18.449Z,18.04
2019-06-08T10:30:48.528Z,17.94
2019-06-08T10:33:19.324Z,17.72
2019-06-08T10:35:50.223Z,17.90
2019-06-08T10:38:20.797Z,18.56
2019-06-08T10:41:10.167Z,19.54
2019-06-08T10:43:38.620Z,20.19
2019-06-08T10:46:16.390Z,20.19
2019-06-08T10:48:41.153Z,20.15
2019-06-08T10:51:13.441Z,19.91
2019-06-08T10:53:52.592Z,19.85
2019-06-08T10:56:18.892Z,19.92
2019-06-08T10:58:49.973Z,19.74
2019-06-08T11:01:20.887Z,19.56
2019-06-08T11:03:51.537Z,19.24
2019-06-08T11:06:22.147Z,18.94
2019-06-08T11:08:52.828Z,18.69
2019-06-08T11:11:23.506Z,18.50
2019-06-08T11:13:54.192Z,18.94
2019-06-08T11:16:28.569Z,20.25
2019-06-08T11:18:59.086Z,21.82
2019-06-08T11:21:29.174Z,21.65
2019-06-08T11:24:07.575Z,21.42
2019-06-08T11:26:34.015Z,19.91
2019-06-08T11:29:05.503Z,19.91
2019-06-08T11:31:39.023Z,19.38
2019-06-08T11:34:10.509Z,19.19
2019-06-08T11:36:41.225Z,19.33
2019-06-08T11:39:12.841Z,19.64
2019-06-08T11:41:44.670Z,19.54
2019-06-08T11:44:17.738Z,19.54
2019-06-08T11:46:47.903Z,19.06
2019-06-08T11:49:18.879Z,19.13
2019-06-08T11:51:49.929Z,19.44
2019-06-08T11:54:33.174Z,19.44
2019-06-08T11:56:53.643Z,20.21
2019-06-08T11:59:25.363Z,20.71
2019-06-08T12:01:58.448Z,20.53
2019-06-08T12:04:28.410Z,20.57
2019-06-08T12:06:59.113Z,20.85
2019-06-08T12:09:30.353Z,21.19
2019-06-08T12:12:01.025Z,21.19
2019-06-08T12:14:33.587Z,20.74
2019-06-08T12:17:03.515Z,20.63
2019-06-08T12:19:34.425Z,20.81
2019-06-08T12:22:08.789Z,20.78
2019-06-08T12:24:42.298Z,20.53
2019-06-08T12:27:23.747Z,20.20
2019-06-08T12:29:43.820Z,20.18
2019-06-08T12:32:16.267Z,20.65
2019-06-08T12:34:46.794Z,21.43
2019-06-08T12:37:21.936Z,21.58
2019-06-08T12:39:49.731Z,21.72
2019-06-08T12:42:24.899Z,22.13
2019-06-08T12:44:52.739Z,22.36
2019-06-08T12:47:29.860Z,22.00
2019-06-08T12:49:59.323Z,21.91
2019-06-08T12:52:29.912Z,22.28
2019-06-08T12:55:06.659Z,22.30
2019-06-08T12:57:32.831Z,21.94
2019-06-08T13:00:03.465Z,21.85
2019-06-08T13:02:34.234Z,21.75
2019-06-08T13:05:05.189Z,22.02
2019-06-08T13:07:35.467Z,22.23
2019-06-08T13:10:06.469Z,22.22
2019-06-08T13:12:40.485Z,22.21
2019-06-08T13:15:11.640Z,22.65
2019-06-08T13:17:43.527Z,22.83
2019-06-08T13:20:22.108Z,22.51
2019-06-08T13:22:52.810Z,22.37
2019-06-08T13:25:36.438Z,22.20
2019-06-08T13:27:55.575Z,21.86
2019-06-08T13:30:28.987Z,21.85
2019-06-08T13:32:58.363Z,21.73
2019-06-08T13:35:30.620Z,21.78
2019-06-08T13:38:01.816Z,21.78
2019-06-08T13:40:32.635Z,22.02
2019-06-08T13:43:03.196Z,22.02
2019-06-08T13:45:33.505Z,22.27
2019-06-08T13:48:04.119Z,22.26
2019-06-08T13:50:34.949Z,21.93
2019-06-08T13:53:05.323Z,21.56
2019-06-08T13:55:49.724Z,21.73
2019-06-08T13:58:08.107Z,21.29
2019-06-08T14:00:38.822Z,20.99
2019-06-08T14:03:09.361Z,21.10
2019-06-08T14:05:39.970Z,21.37
2019-06-08T14:08:10.986Z,21.68
2019-06-08T14:10:42.072Z,21.71
2019-06-08T14:13:13.067Z,21.78
2019-06-08T14:15:44.157Z,21.74
2019-06-08T14:18:17.928Z,21.53
2019-06-08T14:20:48.396Z,21.52
2019-06-08T14:23:21.063Z,21.55
2019-06-08T14:25:56.619Z,21.28
2019-06-08T14:28:25.710Z,21.68
2019-06-08T14:30:59.199Z,22.06
2019-06-08T14:33:33.146Z,22.14
2019-06-08T14:36:01.544Z,21.48
2019-06-08T14:38:38.556Z,20.96
2019-06-08T14:41:04.621Z,20.77
2019-06-08T14:43:35.235Z,20.88
2019-06-08T14:46:07.903Z,21.16
2019-06-08T14:48:38.342Z,21.08
2019-06-08T14:51:08.981Z,21.53
2019-06-08T14:53:39.585Z,21.67
2019-06-08T14:56:09.893Z,21.34
2019-06-08T14:58:40.451Z,20.93
2019-06-08T15:01:11.100Z,20.64
2019-06-08T15:03:42.017Z,20.35
2019-06-08T15:06:13.346Z,19.98
2019-06-08T15:08:43.998Z,19.60
2019-06-08T15:11:17.898Z,17.54
2019-06-08T15:13:48.892Z,15.99
2019-06-08T15:16:21.587Z,15.03
2019-06-08T15:18:52.252Z,14.44
2019-06-08T15:21:23.879Z,14.25
2019-06-08T15:23:57.879Z,14.16
2019-06-08T15:26:36.704Z,14.16
2019-06-08T15:29:00.734Z,14.21
2019-06-08T15:31:32.626Z,14.25
2019-06-08T15:34:04.751Z,14.24
2019-06-08T15:36:38.024Z,14.15
2019-06-08T15:39:08.724Z,13.91
2019-06-08T15:41:39.056Z,13.71
2019-06-08T15:44:09.658Z,13.64
2019-06-08T15:46:41.834Z,13.52
2019-06-08T15:49:12.149Z,13.42
2019-06-08T15:51:42.575Z,13.33
2019-06-08T15:54:13.178Z,13.24
2019-06-08T15:56:49.521Z,13.25
2019-06-08T15:59:16.130Z,13.32
2019-06-08T16:01:46.757Z,13.32
2019-06-08T16:04:17.099Z,13.44
2019-06-08T16:06:47.575Z,13.68
2019-06-08T16:09:17.983Z,13.95
2019-06-08T16:11:48.662Z,14.06
2019-06-08T16:14:19.585Z,14.04
2019-06-08T16:16:50.082Z,14.03
2019-06-08T16:19:20.474Z,14.01
2019-06-08T16:21:51.088Z,14.04
2019-06-08T16:24:21.505Z,14.13
2019-06-08T16:26:53.588Z,14.14
2019-06-08T16:29:24.509Z,14.18
2019-06-08T16:31:55.096Z,14.28
2019-06-08T16:34:25.435Z,14.33
2019-06-08T16:36:55.803Z,14.22
2019-06-08T16:39:26.924Z,14.39
2019-06-08T16:41:57.575Z,15.11
2019-06-08T16:44:28.222Z,15.82
2019-06-08T16:46:58.581Z,16.15
2019-06-08T16:49:36.673Z,16.38
2019-06-08T16:52:09.030Z,16.55
2019-06-08T16:54:40.967Z,16.65
2019-06-08T16:57:12.360Z,16.35
2019-06-08T16:59:44.339Z,16.17
2019-06-08T17:02:16.897Z,16.05
2019-06-08T17:04:46.650Z,16.00
2019-06-08T17:07:17.719Z,15.99
2019-06-08T17:09:48.611Z,15.90
2019-06-08T17:12:19.378Z,15.75
2019-06-08T17:14:50.277Z,15.64
2019-06-08T17:17:22.550Z,15.57
2019-06-08T17:19:53.512Z,15.47
2019-06-08T17:25:00.398Z,14.68
2019-06-08T17:27:31.043Z,14.02
2019-06-08T17:30:08.008Z,14.02
2019-06-08T17:32:34.774Z,13.96
2019-06-08T17:35:06.756Z,13.83
2019-06-08T17:37:38.208Z,13.79
2019-06-08T17:40:08.887Z,13.83
2019-06-08T17:42:39.667Z,13.99
2019-06-08T17:45:10.332Z,14.12
2019-06-08T17:47:45.678Z,14.28
2019-06-08T17:50:18.703Z,14.21
2019-06-08T17:52:51.349Z,14.13
2019-06-08T17:55:21.682Z,14.25
2019-06-08T17:57:54.059Z,14.57
2019-06-08T18:00:25.266Z,15.01
2019-06-08T18:02:57.766Z,15.43
2019-06-08T18:05:29.100Z,15.67
2019-06-08T18:07:59.740Z,15.64
2019-06-08T18:10:30.708Z,15.47
2019-06-08T18:13:01.395Z,15.35
2019-06-08T18:15:34.071Z,15.26
2019-06-08T18:18:04.913Z,15.24
2019-06-08T18:20:39.004Z,15.19
2019-06-08T18:23:08.279Z,15.21
2019-06-08T18:25:40.611Z,15.25
2019-06-08T18:28:13.641Z,15.23
2019-06-08T18:30:45.084Z,15.17
2019-06-08T18:33:18.070Z,15.17
2019-06-08T18:35:49.456Z,15.17
2019-06-08T18:38:24.621Z,15.15
2019-06-08T18:40:57.446Z,15.21
2019-06-08T18:43:28.020Z,15.21
2019-06-08T18:45:59.498Z,14.98
2019-06-08T18:48:29.830Z,14.98
2019-06-08T18:51:04.747Z,14.98
2019-06-08T18:53:49.094Z,14.98
2019-06-08T18:56:09.638Z,15.06
2019-06-08T18:58:40.351Z,15.06
2019-06-08T19:01:10.785Z,15.06
2019-06-08T19:03:46.302Z,15.11
2019-06-08T19:06:18.707Z,15.31
2019-06-08T19:08:49.781Z,15.49
2019-06-08T19:11:21.033Z,15.61
2019-06-08T19:13:52.619Z,15.65
2019-06-08T19:16:23.436Z,15.64
2019-06-08T19:18:57.953Z,15.65
2019-06-08T19:21:28.352Z,15.58
2019-06-08T19:23:59.166Z,15.58
2019-06-08T19:26:29.764Z,15.48
2019-06-08T19:29:00.332Z,15.34
2019-06-08T19:31:31.628Z,15.23
2019-06-08T19:34:03.343Z,15.05
2019-06-08T19:36:33.711Z,14.94
2019-06-08T19:39:07.158Z,14.87
2019-06-08T19:41:39.438Z,14.88
2019-06-08T19:44:10.063Z,14.94
2019-06-08T19:46:40.874Z,14.87
2019-06-08T19:49:11.417Z,14.81
2019-06-08T19:51:42.934Z,14.90
2019-06-08T19:54:13.756Z,14.98
2019-06-08T19:56:47.730Z,14.87
2019-06-08T19:59:18.253Z,14.78
2019-06-08T20:01:56.039Z,14.64
2019-06-08T20:04:21.256Z,14.47
2019-06-08T20:06:51.793Z,14.38
2019-06-08T20:09:22.668Z,14.24
2019-06-08T20:11:57.758Z,14.11
2019-06-08T20:14:27.063Z,13.98
2019-06-08T20:16:57.923Z,14.08
2019-06-08T20:19:28.608Z,14.08
2019-06-08T20:21:59.356Z,14.04
2019-06-08T20:24:29.717Z,13.95
2019-06-08T20:27:01.700Z,13.90
2019-06-08T20:29:32.191Z,13.81
2019-06-08T20:32:02.862Z,13.75
2019-06-08T20:34:33.206Z,13.69
2019-06-08T20:37:07.949Z,13.68
2019-06-08T20:39:38.002Z,13.54
2019-06-08T20:42:11.687Z,13.54
2019-06-08T20:44:39.977Z,13.51
2019-06-08T20:47:10.349Z,13.34
2019-06-08T20:49:42.211Z,13.34
2019-06-08T20:52:12.583Z,13.36
2019-06-08T20:54:44.581Z,13.28
2019-06-08T20:57:17.059Z,13.18
2019-06-08T20:59:50.186Z,13.14
2019-06-08T21:02:20.210Z,13.04
2019-06-08T21:04:54.481Z,13.04
2019-06-08T21:07:27.992Z,13.10
2019-06-08T21:09:58.234Z,13.20
2019-06-08T21:12:28.761Z,13.20
2019-06-08T21:15:01.240Z,13.19
2019-06-08T21:17:31.667Z,13.13
2019-06-08T21:20:03.224Z,13.04
2019-06-08T21:22:33.603Z,13.04
2019-06-08T21:25:08.646Z,13.02
2019-06-08T21:27:38.823Z,12.94
2019-06-08T21:30:20.351Z,12.98
2019-06-08T21:32:41.755Z,12.98
2019-06-08T21:35:12.683Z,12.97
2019-06-08T21:37:43.034Z,13.00
2019-06-08T21:40:13.405Z,13.03
2019-06-08T21:42:45.054Z,12.95
2019-06-08T21:45:15.719Z,12.89
2019-06-08T21:47:48.465Z,12.84
2019-06-08T21:50:18.785Z,12.79
2019-06-08T21:52:51.907Z,12.70
2019-06-08T21:55:22.454Z,12.68
2019-06-08T21:57:55.684Z,12.61
2019-06-08T22:00:39.254Z,12.59
2019-06-08T22:03:00.540Z,12.60
2019-06-08T22:05:30.905Z,12.60
2019-06-08T22:08:03.916Z,12.54
2019-06-08T22:10:34.214Z,12.60
2019-06-08T22:13:05.029Z,12.56
2019-06-08T22:15:37.749Z,12.53
2019-06-08T22:18:08.805Z,12.49
2019-06-08T22:20:39.102Z,12.47
2019-06-08T22:23:09.396Z,12.48
2019-06-08T22:25:40.281Z,12.46
2019-06-08T22:28:10.681Z,12.41
2019-06-08T22:30:43.165Z,12.40
2019-06-08T22:33:13.241Z,12.36
2019-06-08T22:35:43.520Z,12.30
2019-06-08T22:38:14.182Z,12.20
2019-06-08T22:40:44.742Z,12.22
2019-06-08T22:43:16.139Z,12.20
2019-06-08T22:45:49.483Z,12.16
2019-06-08T22:48:20.018Z,12.10
2019-06-08T22:50:50.641Z,12.06
2019-06-08T22:53:21.201Z,12.04
2019-06-08T22:55:53.825Z,12.05
2019-06-08T22:58:24.124Z,12.05
2019-06-08T23:00:56.067Z,12.05
2019-06-08T23:03:26.572Z,12.01
2019-06-08T23:05:59.732Z,12.03
2019-06-08T23:08:29.549Z,12.10
2019-06-08T23:11:01.813Z,12.12
2019-06-08T23:13:32.119Z,12.10
2019-06-08T23:16:04.000Z,12.08
2019-06-08T23:18:37.162Z,12.07
2019-06-08T23:21:08.925Z,12.13
2019-06-08T23:23:39.338Z,12.15
2019-06-08T23:26:10.711Z,12.21
2019-06-08T23:28:42.533Z,12.19
2019-06-08T23:31:21.538Z,12.14
2019-06-08T23:33:48.287Z,12.16
2019-06-08T23:36:39.455Z,12.19
2019-06-08T23:38:51.604Z,12.18
2019-06-08T23:41:22.692Z,12.07
2019-06-08T23:43:54.371Z,12.15
2019-06-08T23:46:27.385Z,12.15
2019-06-08T23:49:01.560Z,12.20
2019-06-08T23:51:31.255Z,12.17
2019-06-08T23:54:03.892Z,12.22
2019-06-08T23:56:36.933Z,12.18
2019-06-08T23:59:07.300Z,12.16
